createdAt,value
2023-04-05T00:00:11.288Z,102629.81
2023-04-05T00:02:44.338Z,102623.59
2023-04-05T00:05:29.490Z,102629.31
2023-04-05T00:08:02.594Z,102631.09
2023-04-05T00:10:34.918Z,102630.88
2023-04-05T00:13:07.812Z,102635.31
2023-04-05T00:15:40.165Z,102634.34
2023-04-05T00:18:24.055Z,102632.72
2023-04-05T00:20:56.346Z,102632.50
2023-04-05T00:23:28.613Z,102627.03
2023-04-05T00:26:00.857Z,102626.06
2023-04-05T00:28:32.973Z,102629.34
2023-04-05T00:31:06.325Z,102628.31
2023-04-05T00:33:38.956Z,102632.53
2023-04-05T00:36:15.482Z,102633.41
2023-04-05T00:38:50.017Z,102627.06
2023-04-05T00:41:22.251Z,102624.38
2023-04-05T00:43:54.544Z,102625.94
2023-04-05T00:46:28.576Z,102620.78
2023-04-05T00:49:00.886Z,102630.16
2023-04-05T00:51:34.078Z,102618.63
2023-04-05T00:54:07.100Z,102617.81
2023-04-05T00:56:40.279Z,102621.38
2023-04-05T00:59:12.605Z,102623.94
2023-04-05T01:01:55.084Z,102622.25
2023-04-05T01:04:31.965Z,102624.69
2023-04-05T01:07:24.329Z,102610.78
2023-04-05T01:09:59.527Z,102607.31
2023-04-05T01:12:38.808Z,102611.75
2023-04-05T01:15:12.969Z,102601.25
2023-04-05T01:17:47.278Z,102610.47
2023-04-05T01:20:20.473Z,102604.38
2023-04-05T01:23:33.268Z,102599.97
2023-04-05T01:26:41.972Z,102608.53
2023-04-05T01:29:23.315Z,102600.63
2023-04-05T01:32:16.016Z,102607.56
2023-04-05T01:35:05.712Z,102610.91
2023-04-05T01:37:43.526Z,102595.28
2023-04-05T01:40:16.633Z,102602.91
2023-04-05T01:42:48.784Z,102602.84
2023-04-05T01:45:21.276Z,102596.63
2023-04-05T01:47:53.612Z,102597.38
2023-04-05T01:50:26.007Z,102595.66
2023-04-05T01:52:58.143Z,102596.47
2023-04-05T01:55:30.536Z,102597.94
2023-04-05T01:58:02.811Z,102592.63
2023-04-05T02:00:35.146Z,102595.28
2023-04-05T02:03:07.595Z,102584.63
2023-04-05T02:05:39.957Z,102583.38
2023-04-05T02:08:12.285Z,102580.63
2023-04-05T02:10:45.340Z,102583.06
2023-04-05T02:13:17.450Z,102582.75
2023-04-05T02:15:50.658Z,102577.53
2023-04-05T02:18:22.947Z,102575.81
2023-04-05T02:21:03.369Z,102579.28
2023-04-05T02:23:35.858Z,102573.00
2023-04-05T02:26:08.298Z,102572.03
2023-04-05T02:28:40.974Z,102575.16
2023-04-05T02:31:13.846Z,102581.31
2023-04-05T02:33:46.821Z,102572.50
2023-04-05T02:36:18.967Z,102572.50
2023-04-05T02:38:51.163Z,102579.31
2023-04-05T02:41:24.113Z,102573.97
2023-04-05T02:43:56.269Z,102566.06
2023-04-05T02:46:28.562Z,102564.13
2023-04-05T02:49:00.783Z,102564.94
2023-04-05T02:51:34.705Z,102560.59
2023-04-05T02:54:06.865Z,102565.59
2023-04-05T02:56:39.078Z,102561.16
2023-04-05T02:59:11.679Z,102562.69
2023-04-05T03:01:44.805Z,102562.53
2023-04-05T03:04:17.552Z,102566.75
2023-04-05T03:06:50.009Z,102564.88
2023-04-05T03:09:22.727Z,102561.25
2023-04-05T03:11:54.834Z,102559.97
2023-04-05T03:14:26.975Z,102567.81
2023-04-05T03:16:59.237Z,102570.16
2023-04-05T03:19:32.338Z,102560.78
2023-04-05T03:22:04.896Z,102557.16
2023-04-05T03:24:37.103Z,102558.94
2023-04-05T03:27:09.467Z,102549.31
2023-04-05T03:29:43.294Z,102557.72
2023-04-05T03:32:16.340Z,102557.47
2023-04-05T03:34:48.634Z,102554.00
2023-04-05T03:37:20.827Z,102566.28
2023-04-05T03:39:53.427Z,102554.00
2023-04-05T03:42:25.540Z,102553.66
2023-04-05T03:44:57.682Z,102559.72
2023-04-05T03:47:30.019Z,102549.28
2023-04-05T03:50:02.893Z,102550.03
2023-04-05T03:52:35.118Z,102549.94
2023-04-05T03:55:08.428Z,102546.56
2023-04-05T03:57:42.959Z,102546.63
2023-04-05T04:00:15.412Z,102541.22
2023-04-05T04:02:48.963Z,102550.75
2023-04-05T04:05:22.164Z,102551.56
2023-04-05T04:07:54.806Z,102550.84
2023-04-05T04:10:27.038Z,102554.13
2023-04-05T04:12:59.455Z,102548.09
2023-04-05T04:15:31.992Z,102551.56
2023-04-05T04:18:04.456Z,102552.19
2023-04-05T04:20:36.658Z,102545.97
2023-04-05T04:23:10.900Z,102543.47
2023-04-05T04:25:46.395Z,102547.84
2023-04-05T04:28:19.799Z,102549.28
2023-04-05T04:30:52.387Z,102553.41
2023-04-05T04:33:24.563Z,102551.72
2023-04-05T04:35:56.791Z,102550.09
2023-04-05T04:38:28.953Z,102552.69
2023-04-05T04:41:02.785Z,102548.25
2023-04-05T04:43:43.858Z,102552.53
2023-04-05T04:46:16.113Z,102559.94
2023-04-05T04:48:48.532Z,102554.69
2023-04-05T04:51:20.771Z,102552.91
2023-04-05T04:53:53.252Z,102550.34
2023-04-05T04:56:25.605Z,102550.25
2023-04-05T04:58:58.071Z,102557.81
2023-04-05T05:01:30.350Z,102558.81
2023-04-05T05:04:04.615Z,102548.31
2023-04-05T05:06:36.923Z,102555.81
2023-04-05T05:09:09.117Z,102561.06
2023-04-05T05:11:41.430Z,102555.00
2023-04-05T05:14:16.932Z,102556.84
2023-04-05T05:16:49.320Z,102563.72
2023-04-05T05:19:21.659Z,102558.47
2023-04-05T05:21:54.209Z,102556.78
2023-04-05T05:24:26.565Z,102555.88
2023-04-05T05:26:59.196Z,102559.53
2023-04-05T05:29:31.977Z,102558.72
2023-04-05T05:32:04.429Z,102560.25
2023-04-05T05:34:37.512Z,102559.44
2023-04-05T05:37:12.716Z,102560.50
2023-04-05T05:39:45.144Z,102560.50
2023-04-05T05:42:17.339Z,102556.63
2023-04-05T05:44:49.580Z,102554.28
2023-04-05T05:47:22.015Z,102554.47
2023-04-05T05:49:54.249Z,102553.91
2023-04-05T05:52:26.520Z,102557.53
2023-04-05T05:54:58.745Z,102548.16
2023-04-05T05:57:31.173Z,102549.94
2023-04-05T06:00:05.784Z,102558.66
2023-04-05T06:02:38.136Z,102553.91
2023-04-05T06:05:11.080Z,102555.28
2023-04-05T06:07:43.227Z,102546.25
2023-04-05T06:10:15.703Z,102551.00
2023-04-05T06:12:47.944Z,102553.16
2023-04-05T06:15:20.091Z,102550.00
2023-04-05T06:17:52.361Z,102546.03
2023-04-05T06:20:24.589Z,102553.13
2023-04-05T06:22:56.730Z,102544.06
2023-04-05T06:25:28.997Z,102547.94
2023-04-05T06:28:03.764Z,102544.94
2023-04-05T06:30:36.194Z,102541.84
2023-04-05T06:33:08.471Z,102541.97
2023-04-05T06:35:40.950Z,102541.41
2023-04-05T06:38:13.343Z,102545.09
2023-04-05T06:40:45.547Z,102546.34
2023-04-05T06:43:18.094Z,102540.44
2023-04-05T06:45:50.316Z,102534.50
2023-04-05T06:48:22.682Z,102546.25
2023-04-05T06:51:02.967Z,102537.25
2023-04-05T06:53:34.972Z,102542.59
2023-04-05T06:56:07.827Z,102532.81
2023-04-05T06:58:40.157Z,102534.19
2023-04-05T07:01:12.408Z,102530.16
2023-04-05T07:03:44.679Z,102535.63
2023-04-05T07:06:16.971Z,102538.69
2023-04-05T07:08:49.056Z,102542.78
2023-04-05T07:11:21.818Z,102537.22
2023-04-05T07:13:53.936Z,102536.06
2023-04-05T07:16:26.287Z,102532.28
2023-04-05T07:18:58.696Z,102525.66
2023-04-05T07:21:31.511Z,102527.88
2023-04-05T07:24:03.990Z,102527.84
2023-04-05T07:26:37.682Z,102530.28
2023-04-05T07:29:11.858Z,102529.38
2023-04-05T07:31:44.401Z,102520.94
2023-04-05T07:34:16.913Z,102516.00
2023-04-05T07:36:50.592Z,102517.81
2023-04-05T07:39:22.966Z,102513.06
2023-04-05T07:41:55.131Z,102513.06
2023-04-05T07:44:27.384Z,102511.75
2023-04-05T07:46:59.637Z,102505.41
2023-04-05T07:49:31.922Z,102508.00
2023-04-05T07:52:04.796Z,102502.09
2023-04-05T07:54:39.856Z,102508.13
2023-04-05T07:57:18.687Z,102513.81
2023-04-05T07:59:52.879Z,102521.31
2023-04-05T08:02:30.355Z,102515.44
2023-04-05T08:05:02.661Z,102526.34
2023-04-05T08:07:48.277Z,102516.75
2023-04-05T08:10:20.541Z,102505.41
2023-04-05T08:12:54.083Z,102509.59
2023-04-05T08:15:26.591Z,102506.09
2023-04-05T08:17:59.038Z,102505.59
2023-04-05T08:20:31.222Z,102501.88
2023-04-05T08:23:03.378Z,102498.41
2023-04-05T08:25:35.661Z,102501.09
2023-04-05T08:28:08.080Z,102504.50
2023-04-05T08:30:41.745Z,102496.13
2023-04-05T08:33:14.798Z,102489.56
2023-04-05T08:35:47.011Z,102481.84
2023-04-05T08:38:19.317Z,102472.31
2023-04-05T08:40:51.467Z,102478.88
2023-04-05T08:43:39.652Z,102476.09
2023-04-05T08:46:16.756Z,102468.81
2023-04-05T08:48:48.937Z,102472.59
2023-04-05T08:51:26.506Z,102468.44
2023-04-05T08:54:01.490Z,102458.06
2023-04-05T08:56:35.817Z,102463.06
2023-04-05T08:59:11.460Z,102461.06
2023-04-05T09:01:45.936Z,102465.31
2023-04-05T09:04:24.555Z,102454.69
2023-04-05T09:06:59.448Z,102466.09
2023-04-05T09:09:35.135Z,102458.81
2023-04-05T09:12:09.314Z,102460.16
2023-04-05T09:14:42.192Z,102458.56
2023-04-05T09:17:17.374Z,102463.38
2023-04-05T09:19:53.173Z,102454.97
2023-04-05T09:22:25.407Z,102462.63
2023-04-05T09:24:57.602Z,102463.59
2023-04-05T09:27:29.781Z,102471.44
2023-04-05T09:30:01.942Z,102472.97
2023-04-05T09:32:34.171Z,102463.63
2023-04-05T09:35:06.975Z,102461.38
2023-04-05T09:37:56.202Z,102456.59
2023-04-05T09:40:46.889Z,102453.97
2023-04-05T09:43:41.757Z,102454.25
2023-04-05T09:46:34.548Z,102457.38
2023-04-05T09:49:10.416Z,102451.03
2023-04-05T09:51:43.193Z,102450.66
2023-04-05T09:54:15.572Z,102446.94
2023-04-05T09:56:57.966Z,102452.94
2023-04-05T09:59:31.571Z,102447.53
2023-04-05T10:02:05.198Z,102448.06
2023-04-05T10:04:48.605Z,102448.81
2023-04-05T10:07:21.125Z,102447.75
2023-04-05T10:09:53.574Z,102447.56
2023-04-05T10:12:28.151Z,102427.97
2023-04-05T10:15:00.884Z,102434.47
2023-04-05T10:17:51.842Z,102420.94
2023-04-05T10:20:25.164Z,102414.69
2023-04-05T10:23:14.083Z,102411.59
2023-04-05T10:25:53.514Z,102401.84
2023-04-05T10:28:37.955Z,102399.38
2023-04-05T10:31:37.712Z,102399.69
2023-04-05T10:34:44.633Z,102398.78
2023-04-05T10:38:07.682Z,102395.31
2023-04-05T10:40:46.292Z,102396.66
2023-04-05T10:43:35.502Z,102398.09
2023-04-05T10:46:11.362Z,102395.53
2023-04-05T10:49:16.248Z,102387.94
2023-04-05T10:51:49.373Z,102392.97
2023-04-05T10:54:23.365Z,102381.75
2023-04-05T10:56:57.173Z,102388.09
2023-04-05T10:59:30.860Z,102378.03
2023-04-05T11:02:48.383Z,102378.72
2023-04-05T11:05:37.970Z,102382.88
2023-04-05T11:08:12.934Z,102374.88
2023-04-05T11:10:53.935Z,102373.28
2023-04-05T11:13:58.708Z,102365.25
2023-04-05T11:16:41.310Z,102363.81
2023-04-05T11:19:13.956Z,102370.75
2023-04-05T11:21:46.786Z,102373.44
2023-04-05T11:24:19.900Z,102368.84
2023-04-05T11:26:53.021Z,102367.16
2023-04-05T11:29:48.767Z,102359.47
2023-04-05T11:32:22.451Z,102364.19
2023-04-05T11:35:08.052Z,102362.94
2023-04-05T11:38:02.330Z,102357.78
2023-04-05T11:40:43.921Z,102352.53
2023-04-05T11:43:16.566Z,102344.22
2023-04-05T11:45:49.242Z,102335.63
2023-04-05T11:48:23.266Z,102331.28
2023-04-05T11:50:57.736Z,102327.34
2023-04-05T11:53:30.040Z,102327.47
2023-04-05T11:56:13.539Z,102323.03
2023-04-05T11:58:46.011Z,102320.97
2023-04-05T12:01:20.316Z,102325.75
2023-04-05T12:03:58.353Z,102316.09
2023-04-05T12:06:31.122Z,102315.81
2023-04-05T12:09:08.361Z,102306.25
2023-04-05T12:11:41.586Z,102306.50
2023-04-05T12:14:14.108Z,102309.16
2023-04-05T12:16:50.907Z,102303.50
2023-04-05T12:19:23.643Z,102297.16
2023-04-05T12:21:56.214Z,102291.09
2023-04-05T12:24:28.663Z,102293.16
2023-04-05T12:27:01.574Z,102294.66
2023-04-05T12:29:34.269Z,102295.06
2023-04-05T12:32:06.898Z,102293.19
2023-04-05T12:34:39.615Z,102293.69
2023-04-05T12:37:11.888Z,102285.63
2023-04-05T12:39:44.087Z,102283.66
2023-04-05T12:42:18.342Z,102281.50
2023-04-05T12:45:10.773Z,102275.78
2023-04-05T12:48:01.016Z,102275.81
2023-04-05T12:50:33.562Z,102268.94
2023-04-05T12:53:07.473Z,102266.13
2023-04-05T12:55:46.117Z,102268.72
2023-04-05T12:58:20.175Z,102265.28
2023-04-05T13:00:52.808Z,102266.00
2023-04-05T13:03:27.685Z,102261.06
2023-04-05T13:06:00.151Z,102253.06
2023-04-05T13:08:32.639Z,102252.69
2023-04-05T13:11:04.935Z,102263.19
2023-04-05T13:13:37.187Z,102259.16
2023-04-05T13:16:09.889Z,102249.84
2023-04-05T13:18:42.829Z,102241.16
2023-04-05T13:21:15.387Z,102238.44
2023-04-05T13:23:47.748Z,102241.13
2023-04-05T13:26:19.921Z,102237.75
2023-04-05T13:28:52.038Z,102245.41
2023-04-05T13:31:24.266Z,102234.22
2023-04-05T13:33:56.483Z,102225.84
2023-04-05T13:36:28.808Z,102221.19
2023-04-05T13:39:01.937Z,102216.97
2023-04-05T13:41:34.165Z,102210.06
2023-04-05T13:44:06.923Z,102220.44
2023-04-05T13:46:39.252Z,102218.69
2023-04-05T13:49:11.435Z,102210.47
2023-04-05T13:51:43.548Z,102209.41
2023-04-05T13:54:16.316Z,102211.69
2023-04-05T13:56:48.745Z,102210.41
2023-04-05T13:59:21.486Z,102208.94
2023-04-05T14:01:53.933Z,102204.03
2023-04-05T14:04:26.370Z,102208.09
2023-04-05T14:06:58.512Z,102209.56
2023-04-05T14:09:30.754Z,102200.47
2023-04-05T14:12:08.117Z,102203.38
2023-04-05T14:14:42.724Z,102191.91
2023-04-05T14:17:16.106Z,102195.38
2023-04-05T14:19:48.751Z,102187.31
2023-04-05T14:22:21.815Z,102199.28
2023-04-05T14:24:54.144Z,102196.34
2023-04-05T14:27:28.620Z,102190.47
2023-04-05T14:30:00.789Z,102194.78
2023-04-05T14:32:33.891Z,102183.44
2023-04-05T14:35:55.250Z,102197.22
2023-04-05T14:38:27.634Z,102190.22
2023-04-05T14:40:59.857Z,102190.31
2023-04-05T14:43:32.333Z,102185.09
2023-04-05T14:46:04.730Z,102193.97
2023-04-05T14:48:37.635Z,102187.84
2023-04-05T14:51:09.918Z,102181.72
2023-04-05T14:53:42.369Z,102185.28
2023-04-05T14:56:14.811Z,102182.66
2023-04-05T14:58:47.288Z,102179.16
2023-04-05T15:01:19.649Z,102175.66
2023-04-05T15:03:53.839Z,102180.88
2023-04-05T15:06:26.579Z,102178.25
2023-04-05T15:08:59.744Z,102172.94
2023-04-05T15:11:35.737Z,102172.06
2023-04-05T15:14:11.501Z,102170.28
2023-04-05T15:16:47.932Z,102168.47
2023-04-05T15:19:20.265Z,102171.94
2023-04-05T15:21:52.525Z,102163.16
2023-04-05T15:24:24.826Z,102171.81
2023-04-05T15:27:02.910Z,102159.72
2023-04-05T15:29:35.253Z,102160.75
2023-04-05T15:32:07.583Z,102158.91
2023-04-05T15:34:41.276Z,102158.84
2023-04-05T15:37:13.562Z,102152.47
2023-04-05T15:39:45.670Z,102152.09
2023-04-05T15:42:18.879Z,102144.09
2023-04-05T15:44:51.611Z,102138.91
2023-04-05T15:47:23.770Z,102139.19
2023-04-05T15:49:56.129Z,102145.63
2023-04-05T15:52:28.371Z,102139.59
2023-04-05T15:55:00.529Z,102140.56
2023-04-05T15:57:32.784Z,102131.81
2023-04-05T16:00:05.688Z,102138.81
2023-04-05T16:02:38.832Z,102137.88
2023-04-05T16:05:11.215Z,102129.09
2023-04-05T16:07:43.305Z,102129.06
2023-04-05T16:10:15.457Z,102135.19
2023-04-05T16:12:47.721Z,102133.34
2023-04-05T16:15:20.150Z,102129.75
2023-04-05T16:17:52.445Z,102134.94
2023-04-05T16:20:24.633Z,102129.56
2023-04-05T16:22:56.984Z,102132.91
2023-04-05T16:25:29.217Z,102120.59
2023-04-05T16:28:01.483Z,102127.59
2023-04-05T16:30:33.808Z,102120.59
2023-04-05T16:33:06.739Z,102126.69
2023-04-05T16:35:39.024Z,102122.19
2023-04-05T16:38:11.258Z,102120.41
2023-04-05T16:40:44.364Z,102126.53
2023-04-05T16:43:16.996Z,102117.75
2023-04-05T16:45:49.329Z,102108.09
2023-04-05T16:48:22.668Z,102114.97
2023-04-05T16:50:54.813Z,102114.91
2023-04-05T16:53:27.014Z,102103.56
2023-04-05T16:55:59.248Z,102109.63
2023-04-05T16:58:31.536Z,102102.66
2023-04-05T17:01:04.024Z,102103.56
2023-04-05T17:04:42.195Z,102103.53
2023-04-05T17:07:14.312Z,102110.47
2023-04-05T17:09:46.491Z,102103.53
2023-04-05T17:12:20.621Z,102100.88
2023-04-05T17:15:14.530Z,102105.13
2023-04-05T17:17:47.076Z,102107.75
2023-04-05T17:20:19.579Z,102101.44
2023-04-05T17:22:51.957Z,102104.81
2023-04-05T17:25:24.935Z,102107.38
2023-04-05T17:27:57.416Z,102115.22
2023-04-05T17:30:29.891Z,102112.56
2023-04-05T17:33:02.153Z,102101.97
2023-04-05T17:35:34.649Z,102097.56
2023-04-05T17:38:06.940Z,102108.00
2023-04-05T17:40:44.369Z,102099.16
2023-04-05T17:43:17.032Z,102108.72
2023-04-05T17:45:49.680Z,102109.47
2023-04-05T17:48:22.039Z,102110.22
2023-04-05T17:50:54.662Z,102103.16
2023-04-05T17:53:26.897Z,102095.25
2023-04-05T17:55:59.590Z,102098.66
2023-04-05T17:58:32.764Z,102106.41
2023-04-05T18:01:05.170Z,102098.44
2023-04-05T18:03:37.524Z,102099.16
2023-04-05T18:06:09.947Z,102099.03
2023-04-05T18:08:42.331Z,102097.22
2023-04-05T18:11:14.606Z,102099.72
2023-04-05T18:13:47.800Z,102100.53
2023-04-05T18:16:20.081Z,102108.34
2023-04-05T18:18:53.238Z,102112.63
2023-04-05T18:21:26.038Z,102103.84
2023-04-05T18:23:58.778Z,102110.78
2023-04-05T18:26:31.303Z,102119.44
2023-04-05T18:31:37.453Z,102113.16
2023-04-05T18:34:09.836Z,102120.88
2023-04-05T18:36:42.234Z,102121.66
2023-04-05T18:39:17.010Z,102124.09
2023-04-05T18:41:49.480Z,102125.75
2023-04-05T18:44:21.900Z,102125.69
2023-04-05T18:46:54.249Z,102128.19
2023-04-05T18:49:26.721Z,102137.75
2023-04-05T18:51:59.162Z,102138.56
2023-04-05T18:54:31.561Z,102131.44
2023-04-05T18:57:04.082Z,102140.94
2023-04-05T18:59:36.631Z,102145.22
2023-04-05T19:02:09.035Z,102145.16
2023-04-05T19:04:41.681Z,102140.75
2023-04-05T19:07:14.178Z,102145.88
2023-04-05T19:09:46.376Z,102144.94
2023-04-05T19:12:18.616Z,102151.84
2023-04-05T19:34:23.211Z,102163.22
2023-04-05T19:37:20.710Z,102167.47
2023-04-05T19:40:08.375Z,102174.41
2023-04-05T19:47:52.747Z,102163.75
2023-04-05T20:58:24.151Z,102136.63
2023-04-05T21:08:54.000Z,102129.34
2023-04-05T21:11:26.749Z,102125.00
2023-04-05T21:14:00.111Z,102123.28
2023-04-05T21:16:37.622Z,102129.34
2023-04-05T21:19:15.772Z,102128.41
2023-04-05T21:21:48.678Z,102128.38
2023-04-05T21:24:21.639Z,102130.03
2023-04-05T21:26:54.516Z,102125.56
2023-04-05T21:29:27.169Z,102123.75
2023-04-05T21:31:59.618Z,102118.53
2023-04-05T21:34:31.906Z,102121.06
2023-04-05T21:37:04.079Z,102111.47
2023-04-05T21:39:36.287Z,102125.31
2023-04-05T21:42:08.461Z,102119.16
2023-04-05T21:44:40.727Z,102125.91
2023-04-05T21:47:13.360Z,102115.41
2023-04-05T21:49:45.867Z,102118.84
2023-04-05T21:52:18.119Z,102117.13
2023-04-05T21:54:50.605Z,102126.69
2023-04-05T21:57:22.846Z,102119.72
2023-04-05T21:59:55.219Z,102106.69
2023-04-05T22:02:27.635Z,102109.06
2023-04-05T22:04:59.833Z,102111.53
2023-04-05T22:07:32.366Z,102109.69
2023-04-05T22:10:05.397Z,102100.06
2023-04-05T22:12:38.025Z,102103.47
2023-04-05T22:15:10.947Z,102103.44
2023-04-05T22:17:43.269Z,102105.16
2023-04-05T22:20:15.781Z,102098.19
2023-04-05T22:22:48.106Z,102100.69
2023-04-05T22:25:20.748Z,102096.34
2023-04-05T22:27:52.974Z,102093.69
2023-04-05T22:30:28.053Z,102090.22
2023-04-05T22:33:00.604Z,102091.00
2023-04-05T22:35:32.992Z,102093.50
2023-04-05T22:38:05.844Z,102092.63
2023-04-05T22:40:38.185Z,102090.59
2023-04-05T22:43:10.430Z,102097.44
2023-04-05T22:45:42.644Z,102094.75
2023-04-05T22:48:15.255Z,102090.38
2023-04-05T22:50:47.470Z,102096.38
2023-04-05T22:53:19.601Z,102092.78
2023-04-05T22:55:51.871Z,102082.31
2023-04-05T22:58:23.955Z,102075.34
2023-04-05T23:00:56.707Z,102079.63
2023-04-05T23:03:29.178Z,102079.53
2023-04-05T23:06:01.631Z,102078.59
2023-04-05T23:08:35.655Z,102075.13
2023-04-05T23:11:07.925Z,102073.41
2023-04-05T23:13:40.264Z,102068.13
2023-04-05T23:16:12.556Z,102059.38
2023-04-05T23:18:44.794Z,102059.44
2023-04-05T23:21:17.052Z,102062.81
2023-04-05T23:23:49.396Z,102055.88
2023-04-05T23:26:23.150Z,102053.28
2023-04-05T23:28:55.892Z,102047.09
2023-04-05T23:31:28.419Z,102049.59
2023-04-05T23:34:00.818Z,102046.88
2023-04-05T23:36:33.383Z,102044.13
2023-04-05T23:39:06.118Z,102040.59
2023-04-05T23:41:38.508Z,102041.25
2023-04-05T23:44:11.357Z,102031.56
2023-04-05T23:46:43.640Z,102040.97
2023-04-05T23:49:16.119Z,102032.22
2023-04-05T23:51:48.401Z,102036.38
2023-04-05T23:54:20.831Z,102031.00
2023-04-05T23:56:53.201Z,102030.94
2023-04-05T23:59:25.873Z,102032.69
